Terminal Aerodrome Forecast
Issued by NWS Grand Forks, ND

Home | Current Version | Previous Version | Text Only | Print | Product List | Glossary Off
Versions: 1 2 3 4 5 6 7 8 9 10 11 12 13 14 15 16 17 18

000
FTUS43 KFGF 211100
TAFFAR
TAF
KFAR 211120Z 2112/2212 29014KT P6SM SCT025
      TEMPO 2112/2114 BKN025
     FM211400 33018KT P6SM BKN025
      TEMPO 2114/2118 BKN050
     FM211800 33018KT P6SM BKN040
     FM220000 34008KT P6SM SKC=

USA.gov is the U.S. government's official web portal to all federal, state and local government web resources and services.